sensor_id;sensor_type;location;lat;lon;timestamp;P1;durP1;ratioP1;P2;durP2;ratioP2
10529;SDS011;5313;48.834;9.228;2023-01-24T00:00:55;21.03;;;12.17;;
10529;SDS011;5313;48.834;9.228;2023-01-24T00:03:21;22.67;;;12.70;;
10529;SDS011;5313;48.834;9.228;2023-01-24T00:05:47;20.70;;;12.50;;
10529;SDS011;5313;48.834;9.228;2023-01-24T00:08:14;20.23;;;12.40;;
10529;SDS011;5313;48.834;9.228;2023-01-24T00:10:43;20.00;;;11.83;;
10529;SDS011;5313;48.834;9.228;2023-01-24T00:13:12;19.07;;;12.00;;
10529;SDS011;5313;48.834;9.228;2023-01-24T00:15:39;20.33;;;11.80;;
10529;SDS011;5313;48.834;9.228;2023-01-24T00:18:04;20.07;;;12.23;;
10529;SDS011;5313;48.834;9.228;2023-01-24T00:20:30;18.87;;;12.07;;
10529;SDS011;5313;48.834;9.228;2023-01-24T00:22:56;22.30;;;13.23;;
10529;SDS011;5313;48.834;9.228;2023-01-24T00:25:21;18.93;;;11.30;;
10529;SDS011;5313;48.834;9.228;2023-01-24T00:27:47;17.67;;;11.67;;
10529;SDS011;5313;48.834;9.228;2023-01-24T00:30:12;20.30;;;12.60;;
10529;SDS011;5313;48.834;9.228;2023-01-24T00:32:38;19.83;;;11.30;;
10529;SDS011;5313;48.834;9.228;2023-01-24T00:35:04;20.73;;;12.33;;
10529;SDS011;5313;48.834;9.228;2023-01-24T00:37:30;18.60;;;11.60;;
10529;SDS011;5313;48.834;9.228;2023-01-24T00:39:55;21.37;;;12.37;;
10529;SDS011;5313;48.834;9.228;2023-01-24T00:42:21;20.37;;;11.90;;
10529;SDS011;5313;48.834;9.228;2023-01-24T00:44:46;18.90;;;11.40;;
10529;SDS011;5313;48.834;9.228;2023-01-24T00:47:12;19.30;;;12.03;;
10529;SDS011;5313;48.834;9.228;2023-01-24T00:49:37;20.40;;;11.87;;
10529;SDS011;5313;48.834;9.228;2023-01-24T00:52:03;18.90;;;11.33;;
10529;SDS011;5313;48.834;9.228;2023-01-24T00:54:28;18.97;;;12.37;;
10529;SDS011;5313;48.834;9.228;2023-01-24T00:56:54;20.93;;;12.00;;
10529;SDS011;5313;48.834;9.228;2023-01-24T00:59:19;18.47;;;11.80;;
10529;SDS011;5313;48.834;9.228;2023-01-24T01:01:45;20.30;;;12.60;;
10529;SDS011;5313;48.834;9.228;2023-01-24T01:04:11;16.77;;;11.23;;
10529;SDS011;5313;48.834;9.228;2023-01-24T01:06:36;18.73;;;11.27;;
10529;SDS011;5313;48.834;9.228;2023-01-24T01:09:02;19.37;;;12.13;;
10529;SDS011;5313;48.834;9.228;2023-01-24T01:11:28;19.40;;;11.50;;
10529;SDS011;5313;48.834;9.228;2023-01-24T01:13:57;18.93;;;12.13;;
10529;SDS011;5313;48.834;9.228;2023-01-24T01:16:23;20.57;;;12.67;;
10529;SDS011;5313;48.834;9.228;2023-01-24T01:18:50;19.20;;;11.83;;
10529;SDS011;5313;48.834;9.228;2023-01-24T01:21:18;21.87;;;12.73;;
10529;SDS011;5313;48.834;9.228;2023-01-24T01:23:45;20.00;;;12.23;;
10529;SDS011;5313;48.834;9.228;2023-01-24T01:26:15;18.17;;;11.80;;
10529;SDS011;5313;48.834;9.228;2023-01-24T01:28:45;18.97;;;11.60;;
10529;SDS011;5313;48.834;9.228;2023-01-24T01:31:11;20.27;;;12.17;;
10529;SDS011;5313;48.834;9.228;2023-01-24T01:33:37;20.70;;;11.97;;
10529;SDS011;5313;48.834;9.228;2023-01-24T01:36:03;21.77;;;12.80;;
10529;SDS011;5313;48.834;9.228;2023-01-24T01:38:29;21.70;;;13.17;;
10529;SDS011;5313;48.834;9.228;2023-01-24T01:40:55;19.43;;;11.90;;
10529;SDS011;5313;48.834;9.228;2023-01-24T01:43:22;18.83;;;11.57;;
10529;SDS011;5313;48.834;9.228;2023-01-24T01:45:50;21.77;;;12.70;;
10529;SDS011;5313;48.834;9.228;2023-01-24T01:51:04;19.90;;;12.10;;
10529;SDS011;5313;48.834;9.228;2023-01-24T01:53:41;20.50;;;12.57;;
10529;SDS011;5313;48.834;9.228;2023-01-24T01:57:04;20.57;;;12.10;;
10529;SDS011;5313;48.834;9.228;2023-01-24T01:59:19;19.80;;;12.37;;
10529;SDS011;5313;48.834;9.228;2023-01-24T02:01:49;19.90;;;12.50;;
10529;SDS011;5313;48.834;9.228;2023-01-24T02:04:19;21.37;;;12.97;;
10529;SDS011;5313;48.834;9.228;2023-01-24T02:07:00;21.03;;;13.13;;
10529;SDS011;5313;48.834;9.228;2023-01-24T02:09:36;20.67;;;12.47;;
10529;SDS011;5313;48.834;9.228;2023-01-24T02:12:05;21.03;;;12.67;;
10529;SDS011;5313;48.834;9.228;2023-01-24T02:14:34;21.63;;;12.57;;
10529;SDS011;5313;48.834;9.228;2023-01-24T02:17:20;19.97;;;12.40;;
10529;SDS011;5313;48.834;9.228;2023-01-24T02:22:33;20.07;;;12.43;;
10529;SDS011;5313;48.834;9.228;2023-01-24T02:27:49;18.80;;;11.47;;
10529;SDS011;5313;48.834;9.228;2023-01-24T02:30:15;19.70;;;12.07;;
10529;SDS011;5313;48.834;9.228;2023-01-24T02:32:41;19.60;;;12.07;;
10529;SDS011;5313;48.834;9.228;2023-01-24T02:35:06;19.53;;;11.90;;
10529;SDS011;5313;48.834;9.228;2023-01-24T02:37:46;21.20;;;11.87;;
10529;SDS011;5313;48.834;9.228;2023-01-24T02:40:11;20.73;;;12.50;;
10529;SDS011;5313;48.834;9.228;2023-01-24T02:42:38;21.40;;;12.80;;
10529;SDS011;5313;48.834;9.228;2023-01-24T02:45:13;20.90;;;12.43;;
10529;SDS011;5313;48.834;9.228;2023-01-24T02:47:44;21.70;;;11.97;;
10529;SDS011;5313;48.834;9.228;2023-01-24T02:50:15;18.80;;;11.70;;
10529;SDS011;5313;48.834;9.228;2023-01-24T02:52:41;18.63;;;11.60;;
10529;SDS011;5313;48.834;9.228;2023-01-24T02:55:25;22.67;;;12.30;;
10529;SDS011;5313;48.834;9.228;2023-01-24T02:57:51;17.50;;;11.43;;
10529;SDS011;5313;48.834;9.228;2023-01-24T03:00:33;20.17;;;12.50;;
10529;SDS011;5313;48.834;9.228;2023-01-24T03:03:00;21.60;;;12.43;;
10529;SDS011;5313;48.834;9.228;2023-01-24T03:05:26;18.60;;;11.90;;
10529;SDS011;5313;48.834;9.228;2023-01-24T03:08:04;21.33;;;12.93;;
10529;SDS011;5313;48.834;9.228;2023-01-24T03:10:32;21.90;;;13.27;;
10529;SDS011;5313;48.834;9.228;2023-01-24T03:12:59;20.57;;;11.57;;
10529;SDS011;5313;48.834;9.228;2023-01-24T03:15:43;21.13;;;12.00;;
10529;SDS011;5313;48.834;9.228;2023-01-24T03:18:27;22.50;;;13.07;;
10529;SDS011;5313;48.834;9.228;2023-01-24T03:21:11;18.83;;;11.93;;
10529;SDS011;5313;48.834;9.228;2023-01-24T03:23:55;20.73;;;12.07;;
10529;SDS011;5313;48.834;9.228;2023-01-24T03:26:39;21.97;;;12.60;;
10529;SDS011;5313;48.834;9.228;2023-01-24T03:29:23;20.33;;;11.80;;
10529;SDS011;5313;48.834;9.228;2023-01-24T03:32:07;20.27;;;12.43;;
10529;SDS011;5313;48.834;9.228;2023-01-24T03:34:51;20.27;;;12.70;;
10529;SDS011;5313;48.834;9.228;2023-01-24T03:37:17;21.50;;;12.20;;
10529;SDS011;5313;48.834;9.228;2023-01-24T03:40:10;20.97;;;12.67;;
10529;SDS011;5313;48.834;9.228;2023-01-24T03:42:37;20.43;;;12.47;;
10529;SDS011;5313;48.834;9.228;2023-01-24T03:45:16;21.97;;;13.03;;
10529;SDS011;5313;48.834;9.228;2023-01-24T03:47:47;21.07;;;12.23;;
10529;SDS011;5313;48.834;9.228;2023-01-24T03:50:22;19.23;;;11.70;;
10529;SDS011;5313;48.834;9.228;2023-01-24T03:53:11;19.50;;;11.87;;
10529;SDS011;5313;48.834;9.228;2023-01-24T03:55:38;22.20;;;12.07;;
10529;SDS011;5313;48.834;9.228;2023-01-24T03:58:04;19.70;;;11.73;;
10529;SDS011;5313;48.834;9.228;2023-01-24T04:00:30;21.30;;;12.40;;
10529;SDS011;5313;48.834;9.228;2023-01-24T04:02:55;21.33;;;12.40;;
10529;SDS011;5313;48.834;9.228;2023-01-24T04:05:21;18.63;;;11.40;;
10529;SDS011;5313;48.834;9.228;2023-01-24T04:07:47;21.13;;;11.77;;
10529;SDS011;5313;48.834;9.228;2023-01-24T04:10:13;22.30;;;11.90;;
10529;SDS011;5313;48.834;9.228;2023-01-24T04:12:39;21.00;;;11.83;;
10529;SDS011;5313;48.834;9.228;2023-01-24T04:15:05;17.73;;;11.40;;
10529;SDS011;5313;48.834;9.228;2023-01-24T04:17:32;19.97;;;12.43;;
10529;SDS011;5313;48.834;9.228;2023-01-24T04:19:57;19.50;;;12.37;;
10529;SDS011;5313;48.834;9.228;2023-01-24T04:22:23;18.47;;;10.67;;
10529;SDS011;5313;48.834;9.228;2023-01-24T04:24:49;19.67;;;11.60;;
10529;SDS011;5313;48.834;9.228;2023-01-24T04:27:14;20.70;;;12.00;;
10529;SDS011;5313;48.834;9.228;2023-01-24T04:29:40;20.40;;;11.90;;
10529;SDS011;5313;48.834;9.228;2023-01-24T04:32:05;19.00;;;11.77;;
10529;SDS011;5313;48.834;9.228;2023-01-24T04:34:31;20.10;;;11.93;;
10529;SDS011;5313;48.834;9.228;2023-01-24T04:36:57;23.67;;;13.00;;
10529;SDS011;5313;48.834;9.228;2023-01-24T04:39:22;19.90;;;11.80;;
10529;SDS011;5313;48.834;9.228;2023-01-24T04:41:48;20.90;;;12.57;;
10529;SDS011;5313;48.834;9.228;2023-01-24T04:44:13;20.97;;;12.30;;
10529;SDS011;5313;48.834;9.228;2023-01-24T04:46:39;18.40;;;11.40;;
10529;SDS011;5313;48.834;9.228;2023-01-24T04:49:04;21.27;;;12.40;;
10529;SDS011;5313;48.834;9.228;2023-01-24T04:51:30;21.00;;;12.10;;
10529;SDS011;5313;48.834;9.228;2023-01-24T04:53:57;22.23;;;12.47;;
10529;SDS011;5313;48.834;9.228;2023-01-24T04:56:22;21.07;;;12.47;;
10529;SDS011;5313;48.834;9.228;2023-01-24T04:58:47;21.50;;;13.33;;
10529;SDS011;5313;48.834;9.228;2023-01-24T05:01:13;20.07;;;12.07;;
10529;SDS011;5313;48.834;9.228;2023-01-24T05:03:38;19.37;;;11.63;;
10529;SDS011;5313;48.834;9.228;2023-01-24T05:06:04;21.73;;;12.37;;
10529;SDS011;5313;48.834;9.228;2023-01-24T05:08:30;21.90;;;12.40;;
10529;SDS011;5313;48.834;9.228;2023-01-24T05:10:57;20.57;;;11.83;;
10529;SDS011;5313;48.834;9.228;2023-01-24T05:13:25;22.53;;;13.00;;
10529;SDS011;5313;48.834;9.228;2023-01-24T05:15:51;19.23;;;11.60;;
10529;SDS011;5313;48.834;9.228;2023-01-24T05:18:17;20.13;;;12.03;;
10529;SDS011;5313;48.834;9.228;2023-01-24T05:20:43;21.13;;;12.50;;
10529;SDS011;5313;48.834;9.228;2023-01-24T05:23:08;22.23;;;13.20;;
10529;SDS011;5313;48.834;9.228;2023-01-24T05:25:34;22.90;;;12.93;;
10529;SDS011;5313;48.834;9.228;2023-01-24T05:28:00;26.10;;;14.50;;
10529;SDS011;5313;48.834;9.228;2023-01-24T05:30:25;23.33;;;13.67;;
10529;SDS011;5313;48.834;9.228;2023-01-24T05:32:54;23.23;;;13.40;;
10529;SDS011;5313;48.834;9.228;2023-01-24T05:35:21;23.23;;;12.83;;
10529;SDS011;5313;48.834;9.228;2023-01-24T05:37:46;25.87;;;13.97;;
10529;SDS011;5313;48.834;9.228;2023-01-24T05:40:12;24.27;;;13.20;;
10529;SDS011;5313;48.834;9.228;2023-01-24T05:42:39;23.80;;;13.40;;
10529;SDS011;5313;48.834;9.228;2023-01-24T05:45:06;23.77;;;14.00;;
10529;SDS011;5313;48.834;9.228;2023-01-24T05:47:32;26.93;;;13.57;;
10529;SDS011;5313;48.834;9.228;2023-01-24T05:49:57;25.80;;;14.67;;
10529;SDS011;5313;48.834;9.228;2023-01-24T05:52:23;25.17;;;14.37;;
10529;SDS011;5313;48.834;9.228;2023-01-24T05:54:48;24.47;;;13.63;;
10529;SDS011;5313;48.834;9.228;2023-01-24T05:57:14;22.93;;;13.33;;
10529;SDS011;5313;48.834;9.228;2023-01-24T05:59:40;23.43;;;13.80;;
10529;SDS011;5313;48.834;9.228;2023-01-24T06:02:05;26.40;;;14.47;;
10529;SDS011;5313;48.834;9.228;2023-01-24T06:04:31;27.50;;;14.23;;
10529;SDS011;5313;48.834;9.228;2023-01-24T06:06:56;24.60;;;14.10;;
10529;SDS011;5313;48.834;9.228;2023-01-24T06:09:22;25.53;;;13.63;;
10529;SDS011;5313;48.834;9.228;2023-01-24T06:11:48;25.00;;;13.80;;
10529;SDS011;5313;48.834;9.228;2023-01-24T06:14:14;24.50;;;14.47;;
10529;SDS011;5313;48.834;9.228;2023-01-24T06:16:40;25.47;;;15.07;;
10529;SDS011;5313;48.834;9.228;2023-01-24T06:19:07;28.00;;;14.07;;
10529;SDS011;5313;48.834;9.228;2023-01-24T06:24:17;28.63;;;15.50;;
10529;SDS011;5313;48.834;9.228;2023-01-24T06:26:44;25.83;;;14.00;;
10529;SDS011;5313;48.834;9.228;2023-01-24T06:29:11;27.70;;;14.50;;
10529;SDS011;5313;48.834;9.228;2023-01-24T06:31:44;26.07;;;14.07;;
10529;SDS011;5313;48.834;9.228;2023-01-24T06:39:31;23.23;;;13.47;;
10529;SDS011;5313;48.834;9.228;2023-01-24T06:41:58;26.90;;;14.57;;
10529;SDS011;5313;48.834;9.228;2023-01-24T06:44:24;27.37;;;15.20;;
10529;SDS011;5313;48.834;9.228;2023-01-24T06:46:50;29.30;;;14.73;;
10529;SDS011;5313;48.834;9.228;2023-01-24T06:49:15;25.73;;;13.90;;
10529;SDS011;5313;48.834;9.228;2023-01-24T06:51:41;22.60;;;12.80;;
10529;SDS011;5313;48.834;9.228;2023-01-24T06:54:06;25.13;;;14.40;;
10529;SDS011;5313;48.834;9.228;2023-01-24T06:56:32;23.50;;;14.37;;
10529;SDS011;5313;48.834;9.228;2023-01-24T06:58:58;28.00;;;14.37;;
10529;SDS011;5313;48.834;9.228;2023-01-24T07:01:23;23.97;;;13.73;;
10529;SDS011;5313;48.834;9.228;2023-01-24T07:03:49;27.37;;;15.20;;
10529;SDS011;5313;48.834;9.228;2023-01-24T07:06:14;25.00;;;14.40;;
10529;SDS011;5313;48.834;9.228;2023-01-24T07:08:40;26.67;;;14.23;;
10529;SDS011;5313;48.834;9.228;2023-01-24T07:11:06;22.73;;;13.77;;
10529;SDS011;5313;48.834;9.228;2023-01-24T07:13:32;26.53;;;13.43;;
10529;SDS011;5313;48.834;9.228;2023-01-24T07:16:00;23.50;;;13.47;;
10529;SDS011;5313;48.834;9.228;2023-01-24T07:18:26;26.63;;;13.90;;
10529;SDS011;5313;48.834;9.228;2023-01-24T07:20:53;21.73;;;13.47;;
10529;SDS011;5313;48.834;9.228;2023-01-24T07:23:22;23.00;;;14.10;;
10529;SDS011;5313;48.834;9.228;2023-01-24T07:25:53;25.47;;;13.10;;
10529;SDS011;5313;48.834;9.228;2023-01-24T07:28:18;25.43;;;14.10;;
10529;SDS011;5313;48.834;9.228;2023-01-24T07:30:44;26.13;;;13.47;;
10529;SDS011;5313;48.834;9.228;2023-01-24T07:33:12;24.80;;;14.43;;
10529;SDS011;5313;48.834;9.228;2023-01-24T07:35:39;34.27;;;14.93;;
10529;SDS011;5313;48.834;9.228;2023-01-24T07:38:05;24.90;;;14.00;;
10529;SDS011;5313;48.834;9.228;2023-01-24T07:40:31;28.67;;;14.43;;
10529;SDS011;5313;48.834;9.228;2023-01-24T07:42:58;25.60;;;13.37;;
10529;SDS011;5313;48.834;9.228;2023-01-24T07:45:25;23.23;;;13.03;;
10529;SDS011;5313;48.834;9.228;2023-01-24T07:47:53;27.73;;;14.53;;
10529;SDS011;5313;48.834;9.228;2023-01-24T07:50:23;26.27;;;13.77;;
10529;SDS011;5313;48.834;9.228;2023-01-24T07:52:53;26.50;;;13.83;;
10529;SDS011;5313;48.834;9.228;2023-01-24T07:55:19;27.00;;;14.17;;
10529;SDS011;5313;48.834;9.228;2023-01-24T07:57:45;27.47;;;13.83;;
10529;SDS011;5313;48.834;9.228;2023-01-24T08:00:11;27.63;;;14.17;;
10529;SDS011;5313;48.834;9.228;2023-01-24T08:02:38;25.33;;;13.77;;
10529;SDS011;5313;48.834;9.228;2023-01-24T08:05:04;26.50;;;13.87;;
10529;SDS011;5313;48.834;9.228;2023-01-24T08:07:30;23.97;;;13.47;;
10529;SDS011;5313;48.834;9.228;2023-01-24T08:09:56;29.00;;;13.93;;
10529;SDS011;5313;48.834;9.228;2023-01-24T08:12:22;25.93;;;15.33;;
10529;SDS011;5313;48.834;9.228;2023-01-24T08:14:47;26.20;;;14.40;;
10529;SDS011;5313;48.834;9.228;2023-01-24T08:17:13;25.57;;;14.30;;
10529;SDS011;5313;48.834;9.228;2023-01-24T08:19:38;25.87;;;14.40;;
10529;SDS011;5313;48.834;9.228;2023-01-24T08:22:04;26.97;;;14.10;;
10529;SDS011;5313;48.834;9.228;2023-01-24T08:24:30;23.73;;;13.73;;
10529;SDS011;5313;48.834;9.228;2023-01-24T08:26:57;27.63;;;15.20;;
10529;SDS011;5313;48.834;9.228;2023-01-24T08:29:24;28.23;;;14.07;;
10529;SDS011;5313;48.834;9.228;2023-01-24T08:31:49;25.33;;;13.93;;
10529;SDS011;5313;48.834;9.228;2023-01-24T08:34:15;25.30;;;13.97;;
10529;SDS011;5313;48.834;9.228;2023-01-24T08:36:40;24.63;;;14.63;;
10529;SDS011;5313;48.834;9.228;2023-01-24T08:39:06;24.13;;;13.43;;
10529;SDS011;5313;48.834;9.228;2023-01-24T08:41:31;24.03;;;13.43;;
10529;SDS011;5313;48.834;9.228;2023-01-24T08:43:57;26.63;;;13.90;;
10529;SDS011;5313;48.834;9.228;2023-01-24T08:46:23;24.77;;;14.43;;
10529;SDS011;5313;48.834;9.228;2023-01-24T08:48:48;25.03;;;13.27;;
10529;SDS011;5313;48.834;9.228;2023-01-24T08:51:14;24.53;;;13.13;;
10529;SDS011;5313;48.834;9.228;2023-01-24T08:53:39;22.13;;;13.17;;
10529;SDS011;5313;48.834;9.228;2023-01-24T08:56:05;24.60;;;13.83;;
10529;SDS011;5313;48.834;9.228;2023-01-24T08:58:32;24.63;;;13.17;;
10529;SDS011;5313;48.834;9.228;2023-01-24T09:00:58;24.50;;;12.70;;
10529;SDS011;5313;48.834;9.228;2023-01-24T09:03:24;24.20;;;13.37;;
10529;SDS011;5313;48.834;9.228;2023-01-24T09:05:55;24.57;;;12.83;;
10529;SDS011;5313;48.834;9.228;2023-01-24T09:08:22;24.60;;;13.67;;
10529;SDS011;5313;48.834;9.228;2023-01-24T09:10:48;23.47;;;13.50;;
10529;SDS011;5313;48.834;9.228;2023-01-24T09:13:13;21.97;;;12.67;;
10529;SDS011;5313;48.834;9.228;2023-01-24T09:15:39;22.87;;;12.80;;
10529;SDS011;5313;48.834;9.228;2023-01-24T09:18:05;20.70;;;12.13;;
10529;SDS011;5313;48.834;9.228;2023-01-24T09:20:30;23.13;;;12.80;;
10529;SDS011;5313;48.834;9.228;2023-01-24T09:22:56;22.93;;;13.17;;
10529;SDS011;5313;48.834;9.228;2023-01-24T09:25:21;24.73;;;14.07;;
10529;SDS011;5313;48.834;9.228;2023-01-24T09:27:53;21.60;;;12.33;;
10529;SDS011;5313;48.834;9.228;2023-01-24T09:30:20;22.70;;;13.30;;
10529;SDS011;5313;48.834;9.228;2023-01-24T09:32:47;19.63;;;11.23;;
10529;SDS011;5313;48.834;9.228;2023-01-24T09:35:12;18.97;;;11.60;;
10529;SDS011;5313;48.834;9.228;2023-01-24T09:37:38;23.43;;;11.40;;
10529;SDS011;5313;48.834;9.228;2023-01-24T09:40:28;22.57;;;11.50;;
10529;SDS011;5313;48.834;9.228;2023-01-24T09:42:58;18.17;;;10.47;;
10529;SDS011;5313;48.834;9.228;2023-01-24T09:45:47;18.33;;;10.90;;
10529;SDS011;5313;48.834;9.228;2023-01-24T09:48:21;22.17;;;10.93;;
10529;SDS011;5313;48.834;9.228;2023-01-24T09:50:49;17.00;;;9.80;;
10529;SDS011;5313;48.834;9.228;2023-01-24T09:53:24;17.70;;;10.63;;
10529;SDS011;5313;48.834;9.228;2023-01-24T09:56:27;18.03;;;10.10;;
10529;SDS011;5313;48.834;9.228;2023-01-24T09:59:06;20.70;;;10.70;;
10529;SDS011;5313;48.834;9.228;2023-01-24T10:01:38;17.17;;;9.43;;
10529;SDS011;5313;48.834;9.228;2023-01-24T10:04:09;14.73;;;9.07;;
10529;SDS011;5313;48.834;9.228;2023-01-24T10:06:40;15.87;;;9.73;;
10529;SDS011;5313;48.834;9.228;2023-01-24T10:09:17;13.47;;;8.77;;
10529;SDS011;5313;48.834;9.228;2023-01-24T10:11:52;14.70;;;8.43;;
10529;SDS011;5313;48.834;9.228;2023-01-24T10:22:45;13.67;;;8.07;;
10529;SDS011;5313;48.834;9.228;2023-01-24T10:25:25;13.07;;;8.27;;
10529;SDS011;5313;48.834;9.228;2023-01-24T10:27:52;15.40;;;8.97;;
10529;SDS011;5313;48.834;9.228;2023-01-24T10:30:26;12.93;;;7.73;;
10529;SDS011;5313;48.834;9.228;2023-01-24T10:33:01;12.80;;;7.83;;
10529;SDS011;5313;48.834;9.228;2023-01-24T10:35:30;12.30;;;7.90;;
10529;SDS011;5313;48.834;9.228;2023-01-24T10:38:04;13.97;;;8.73;;
10529;SDS011;5313;48.834;9.228;2023-01-24T10:40:35;14.80;;;8.77;;
10529;SDS011;5313;48.834;9.228;2023-01-24T10:43:17;13.73;;;8.57;;
10529;SDS011;5313;48.834;9.228;2023-01-24T10:45:52;14.27;;;8.50;;
10529;SDS011;5313;48.834;9.228;2023-01-24T10:48:41;13.77;;;8.87;;
10529;SDS011;5313;48.834;9.228;2023-01-24T10:51:14;13.13;;;8.00;;
10529;SDS011;5313;48.834;9.228;2023-01-24T10:53:44;14.20;;;8.40;;
10529;SDS011;5313;48.834;9.228;2023-01-24T10:56:11;14.30;;;8.90;;
10529;SDS011;5313;48.834;9.228;2023-01-24T10:58:42;15.73;;;8.53;;
10529;SDS011;5313;48.834;9.228;2023-01-24T11:01:22;12.57;;;7.97;;
10529;SDS011;5313;48.834;9.228;2023-01-24T11:03:56;12.23;;;8.00;;
10529;SDS011;5313;48.834;9.228;2023-01-24T11:09:01;12.63;;;7.83;;
10529;SDS011;5313;48.834;9.228;2023-01-24T11:12:12;14.83;;;8.67;;
10529;SDS011;5313;48.834;9.228;2023-01-24T11:14:32;12.90;;;8.10;;
10529;SDS011;5313;48.834;9.228;2023-01-24T11:16:59;14.17;;;8.37;;
10529;SDS011;5313;48.834;9.228;2023-01-24T11:21:59;15.37;;;9.40;;
10529;SDS011;5313;48.834;9.228;2023-01-24T11:24:26;13.60;;;8.10;;
10529;SDS011;5313;48.834;9.228;2023-01-24T11:26:57;16.57;;;9.03;;
10529;SDS011;5313;48.834;9.228;2023-01-24T11:29:30;14.17;;;8.37;;
10529;SDS011;5313;48.834;9.228;2023-01-24T11:32:01;15.13;;;9.00;;
10529;SDS011;5313;48.834;9.228;2023-01-24T11:35:03;22.77;;;11.40;;
10529;SDS011;5313;48.834;9.228;2023-01-24T11:37:58;15.73;;;9.20;;
10529;SDS011;5313;48.834;9.228;2023-01-24T11:43:25;15.20;;;8.97;;
10529;SDS011;5313;48.834;9.228;2023-01-24T11:46:15;14.93;;;9.00;;
10529;SDS011;5313;48.834;9.228;2023-01-24T11:51:30;14.63;;;8.87;;
10529;SDS011;5313;48.834;9.228;2023-01-24T11:56:52;13.27;;;8.70;;
10529;SDS011;5313;48.834;9.228;2023-01-24T12:07:40;12.87;;;8.43;;
10529;SDS011;5313;48.834;9.228;2023-01-24T12:13:05;12.83;;;8.33;;
10529;SDS011;5313;48.834;9.228;2023-01-24T12:16:00;14.23;;;8.83;;
10529;SDS011;5313;48.834;9.228;2023-01-24T12:18:52;16.83;;;9.73;;
10529;SDS011;5313;48.834;9.228;2023-01-24T12:21:31;16.43;;;9.20;;
10529;SDS011;5313;48.834;9.228;2023-01-24T12:24:05;18.63;;;9.90;;
10529;SDS011;5313;48.834;9.228;2023-01-24T12:26:44;18.97;;;9.77;;
10529;SDS011;5313;48.834;9.228;2023-01-24T12:29:15;15.40;;;8.60;;
10529;SDS011;5313;48.834;9.228;2023-01-24T12:34:29;16.20;;;8.60;;
10529;SDS011;5313;48.834;9.228;2023-01-24T12:37:01;12.43;;;7.90;;
10529;SDS011;5313;48.834;9.228;2023-01-24T12:39:44;13.47;;;7.87;;
10529;SDS011;5313;48.834;9.228;2023-01-24T12:42:18;12.80;;;7.90;;
10529;SDS011;5313;48.834;9.228;2023-01-24T12:44:52;13.90;;;8.43;;
10529;SDS011;5313;48.834;9.228;2023-01-24T12:47:31;12.47;;;7.60;;
10529;SDS011;5313;48.834;9.228;2023-01-24T12:52:55;12.07;;;7.63;;
10529;SDS011;5313;48.834;9.228;2023-01-24T12:55:38;11.10;;;7.27;;
10529;SDS011;5313;48.834;9.228;2023-01-24T12:58:16;13.10;;;8.00;;
10529;SDS011;5313;48.834;9.228;2023-01-24T13:00:57;14.53;;;8.20;;
10529;SDS011;5313;48.834;9.228;2023-01-24T13:09:13;11.17;;;7.10;;
10529;SDS011;5313;48.834;9.228;2023-01-24T13:11:59;13.23;;;7.90;;
10529;SDS011;5313;48.834;9.228;2023-01-24T13:14:33;12.63;;;8.30;;
10529;SDS011;5313;48.834;9.228;2023-01-24T13:19:57;11.67;;;7.37;;
10529;SDS011;5313;48.834;9.228;2023-01-24T13:25:34;13.53;;;7.90;;
10529;SDS011;5313;48.834;9.228;2023-01-24T13:28:24;11.97;;;8.03;;
10529;SDS011;5313;48.834;9.228;2023-01-24T13:31:30;13.77;;;8.03;;
10529;SDS011;5313;48.834;9.228;2023-01-24T13:34:03;14.50;;;9.27;;
10529;SDS011;5313;48.834;9.228;2023-01-24T13:36:35;12.57;;;8.17;;
10529;SDS011;5313;48.834;9.228;2023-01-24T13:39:03;12.93;;;7.77;;
10529;SDS011;5313;48.834;9.228;2023-01-24T13:41:35;13.53;;;8.43;;
10529;SDS011;5313;48.834;9.228;2023-01-24T13:46:58;13.43;;;7.70;;
10529;SDS011;5313;48.834;9.228;2023-01-24T13:51:54;12.83;;;8.30;;
10529;SDS011;5313;48.834;9.228;2023-01-24T13:57:09;13.60;;;7.73;;
10529;SDS011;5313;48.834;9.228;2023-01-24T13:59:40;12.20;;;7.63;;
10529;SDS011;5313;48.834;9.228;2023-01-24T14:04:59;13.60;;;7.90;;
10529;SDS011;5313;48.834;9.228;2023-01-24T14:07:36;15.67;;;8.03;;
10529;SDS011;5313;48.834;9.228;2023-01-24T14:10:04;11.93;;;7.00;;
10529;SDS011;5313;48.834;9.228;2023-01-24T14:12:33;12.67;;;7.53;;
10529;SDS011;5313;48.834;9.228;2023-01-24T14:15:25;12.47;;;7.50;;
10529;SDS011;5313;48.834;9.228;2023-01-24T14:18:32;12.07;;;8.03;;
10529;SDS011;5313;48.834;9.228;2023-01-24T14:21:17;12.83;;;7.83;;
10529;SDS011;5313;48.834;9.228;2023-01-24T14:23:49;11.77;;;7.00;;
10529;SDS011;5313;48.834;9.228;2023-01-24T14:26:20;11.83;;;7.57;;
10529;SDS011;5313;48.834;9.228;2023-01-24T14:28:52;12.47;;;7.10;;
10529;SDS011;5313;48.834;9.228;2023-01-24T14:33:51;14.23;;;8.83;;
10529;SDS011;5313;48.834;9.228;2023-01-24T14:36:38;11.10;;;7.47;;
10529;SDS011;5313;48.834;9.228;2023-01-24T14:39:11;10.37;;;6.47;;
10529;SDS011;5313;48.834;9.228;2023-01-24T14:41:38;12.27;;;7.53;;
10529;SDS011;5313;48.834;9.228;2023-01-24T14:44:19;13.43;;;7.47;;
10529;SDS011;5313;48.834;9.228;2023-01-24T14:49:26;12.43;;;7.43;;
10529;SDS011;5313;48.834;9.228;2023-01-24T14:51:53;11.93;;;7.20;;
10529;SDS011;5313;48.834;9.228;2023-01-24T14:54:20;14.50;;;7.00;;
10529;SDS011;5313;48.834;9.228;2023-01-24T14:56:47;12.23;;;7.87;;
10529;SDS011;5313;48.834;9.228;2023-01-24T14:59:13;10.73;;;7.27;;
10529;SDS011;5313;48.834;9.228;2023-01-24T15:01:39;11.87;;;7.83;;
10529;SDS011;5313;48.834;9.228;2023-01-24T15:04:05;12.87;;;8.00;;
10529;SDS011;5313;48.834;9.228;2023-01-24T15:06:44;12.53;;;8.50;;
10529;SDS011;5313;48.834;9.228;2023-01-24T15:09:11;15.23;;;7.90;;
10529;SDS011;5313;48.834;9.228;2023-01-24T15:11:39;12.17;;;8.13;;
10529;SDS011;5313;48.834;9.228;2023-01-24T15:14:06;13.00;;;8.43;;
10529;SDS011;5313;48.834;9.228;2023-01-24T15:16:46;12.97;;;8.77;;
10529;SDS011;5313;48.834;9.228;2023-01-24T15:19:22;16.50;;;9.60;;
10529;SDS011;5313;48.834;9.228;2023-01-24T15:21:51;14.73;;;8.67;;
10529;SDS011;5313;48.834;9.228;2023-01-24T15:24:20;13.77;;;8.47;;
10529;SDS011;5313;48.834;9.228;2023-01-24T15:26:49;14.50;;;8.43;;
10529;SDS011;5313;48.834;9.228;2023-01-24T15:32:01;14.10;;;8.10;;
10529;SDS011;5313;48.834;9.228;2023-01-24T15:34:27;16.87;;;8.70;;
10529;SDS011;5313;48.834;9.228;2023-01-24T15:36:56;14.77;;;8.30;;
10529;SDS011;5313;48.834;9.228;2023-01-24T15:39:24;14.40;;;8.30;;
10529;SDS011;5313;48.834;9.228;2023-01-24T15:41:50;14.67;;;8.30;;
10529;SDS011;5313;48.834;9.228;2023-01-24T15:44:41;16.47;;;8.67;;
10529;SDS011;5313;48.834;9.228;2023-01-24T15:47:15;17.17;;;9.10;;
10529;SDS011;5313;48.834;9.228;2023-01-24T15:50:21;15.47;;;8.77;;
10529;SDS011;5313;48.834;9.228;2023-01-24T15:53:26;15.43;;;8.83;;
10529;SDS011;5313;48.834;9.228;2023-01-24T15:55:53;16.23;;;9.20;;
10529;SDS011;5313;48.834;9.228;2023-01-24T15:58:23;16.57;;;9.37;;
10529;SDS011;5313;48.834;9.228;2023-01-24T16:00:49;15.57;;;9.47;;
10529;SDS011;5313;48.834;9.228;2023-01-24T16:03:16;15.63;;;9.67;;
10529;SDS011;5313;48.834;9.228;2023-01-24T16:05:42;15.60;;;9.30;;
10529;SDS011;5313;48.834;9.228;2023-01-24T16:08:07;15.07;;;9.43;;
10529;SDS011;5313;48.834;9.228;2023-01-24T16:10:33;16.10;;;9.23;;
10529;SDS011;5313;48.834;9.228;2023-01-24T16:13:00;17.20;;;9.67;;
10529;SDS011;5313;48.834;9.228;2023-01-24T16:15:26;16.57;;;9.43;;
10529;SDS011;5313;48.834;9.228;2023-01-24T16:17:51;19.10;;;10.57;;
10529;SDS011;5313;48.834;9.228;2023-01-24T16:20:21;17.63;;;10.50;;
10529;SDS011;5313;48.834;9.228;2023-01-24T16:22:55;20.20;;;11.03;;